Time;durP1;ratioP1;P1;durP2;ratioP2;P2;SDS_P1;SDS_P2;PMS_P1;PMS_P2;Temp;Humidity;BMP_temperature;BMP_pressure;BME280_temperature;BME280_humidity;BME280_pressure;Samples;Min_cycle;Max_cycle;Signal;HPM_P1;HPM_P2
2022/01/09 00:00:45;;;;;;;1.33;1.20;;;;;;;;;;5024468;28;20444;-70
2022/01/09 00:03:10;;;;;;;1.20;0.95;;;;;;;;;;5029667;28;20037;-70
2022/01/09 00:05:36;;;;;;;1.30;1.00;;;;;;;;;;5021425;28;20038;-70
2022/01/09 00:08:02;;;;;;;1.30;1.20;;;;;;;;;;5017929;28;20467;-70
2022/01/09 00:10:29;;;;;;;1.00;0.98;;;;;;;;;;5029473;28;20450;-70
2022/01/09 00:12:55;;;;;;;1.23;1.13;;;;;;;;;;5030081;28;20108;-70
2022/01/09 00:15:20;;;;;;;1.70;1.30;;;;;;;;;;5023303;28;20859;-70
2022/01/09 00:17:45;;;;;;;1.50;1.20;;;;;;;;;;5027151;28;20022;-70
2022/01/09 00:20:12;;;;;;;1.30;1.20;;;;;;;;;;5028192;28;20079;-70
2022/01/09 00:22:50;;;;;;;1.27;1.17;;;;;;;;;;5028202;28;20045;-70
2022/01/09 00:25:19;;;;;;;2.22;1.30;;;;;;;;;;5029503;28;20533;-70
2022/01/09 00:27:45;;;;;;;1.52;1.20;;;;;;;;;;5029851;28;20029;-70
2022/01/09 00:30:12;;;;;;;1.92;1.45;;;;;;;;;;5030382;28;20033;-70
2022/01/09 00:32:38;;;;;;;4.00;1.20;;;;;;;;;;5029008;28;20489;-70
2022/01/09 00:35:05;;;;;;;1.33;1.17;;;;;;;;;;5030994;28;20057;-70
2022/01/09 00:37:30;;;;;;;1.35;1.13;;;;;;;;;;5030465;28;20029;-70
2022/01/09 00:39:56;;;;;;;1.85;1.25;;;;;;;;;;5029937;28;20060;-71
2022/01/09 00:42:21;;;;;;;2.33;1.38;;;;;;;;;;5019707;28;20034;-71
2022/01/09 00:44:47;;;;;;;2.15;1.48;;;;;;;;;;5022972;28;20870;-70
2022/01/09 00:47:13;;;;;;;1.85;1.23;;;;;;;;;;5031633;28;20175;-70
2022/01/09 00:49:38;;;;;;;1.30;1.10;;;;;;;;;;5030159;28;20482;-70
2022/01/09 00:52:04;;;;;;;1.65;1.20;;;;;;;;;;5030551;28;20033;-69
2022/01/09 00:54:29;;;;;;;1.65;1.10;;;;;;;;;;5029251;28;20041;-70
2022/01/09 00:56:55;;;;;;;1.63;1.20;;;;;;;;;;5028107;28;20034;-69
2022/01/09 00:59:20;;;;;;;1.13;1.00;;;;;;;;;;5029938;28;20091;-69
2022/01/09 01:01:46;;;;;;;1.45;1.15;;;;;;;;;;5027344;28;20029;-69
2022/01/09 01:04:12;;;;;;;1.70;1.20;;;;;;;;;;5030722;28;20391;-69
2022/01/09 01:06:37;;;;;;;1.63;1.13;;;;;;;;;;5031566;28;20110;-69
2022/01/09 01:09:03;;;;;;;1.13;1.00;;;;;;;;;;5033611;28;20040;-70
2022/01/09 01:11:28;;;;;;;1.13;0.90;;;;;;;;;;5032550;28;20065;-69
2022/01/09 01:13:54;;;;;;;1.42;1.10;;;;;;;;;;5033743;28;20455;-69
2022/01/09 01:16:19;;;;;;;1.70;1.15;;;;;;;;;;5032702;28;21570;-70
2022/01/09 01:18:45;;;;;;;0.90;0.90;;;;;;;;;;5031847;28;20378;-71
2022/01/09 01:21:12;;;;;;;2.83;1.23;;;;;;;;;;5019975;28;20108;-69
2022/01/09 01:23:37;;;;;;;4.15;1.20;;;;;;;;;;5032141;28;20036;-70
2022/01/09 01:26:03;;;;;;;1.60;1.13;;;;;;;;;;5033513;28;20398;-69
2022/01/09 01:28:30;;;;;;;1.23;1.13;;;;;;;;;;5032045;28;20539;-68
2022/01/09 01:30:55;;;;;;;1.60;1.30;;;;;;;;;;5031873;28;20128;-69
2022/01/09 01:33:21;;;;;;;1.23;1.10;;;;;;;;;;5027628;28;20108;-69
2022/01/09 01:35:47;;;;;;;1.80;1.27;;;;;;;;;;5022896;28;20575;-69
2022/01/09 01:38:12;;;;;;;3.08;1.30;;;;;;;;;;5030517;28;20356;-69
2022/01/09 01:40:38;;;;;;;2.72;1.35;;;;;;;;;;5032743;28;20446;-69
2022/01/09 01:43:03;;;;;;;2.05;1.40;;;;;;;;;;5033192;28;20033;-69
2022/01/09 01:45:29;;;;;;;2.05;1.30;;;;;;;;;;5032418;28;20030;-67
2022/01/09 01:47:54;;;;;;;1.90;1.20;;;;;;;;;;5031967;28;20026;-67
2022/01/09 01:50:20;;;;;;;1.50;1.15;;;;;;;;;;5031185;28;20056;-67
2022/01/09 01:52:49;;;;;;;2.42;1.45;;;;;;;;;;5032259;28;20029;-67
2022/01/09 01:55:15;;;;;;;2.60;1.38;;;;;;;;;;5031325;28;20033;-66
2022/01/09 01:57:42;;;;;;;1.90;1.33;;;;;;;;;;5032513;28;20033;-68
2022/01/09 02:00:12;;;;;;;2.20;1.48;;;;;;;;;;5032220;28;20171;-67
2022/01/09 02:02:38;;;;;;;1.38;1.20;;;;;;;;;;5030247;28;20391;-67
2022/01/09 02:05:07;;;;;;;1.95;1.20;;;;;;;;;;5030523;28;20038;-68
2022/01/09 02:07:32;;;;;;;1.83;1.33;;;;;;;;;;5032325;28;20046;-66
2022/01/09 02:09:58;;;;;;;1.73;1.20;;;;;;;;;;5032546;28;20036;-67
2022/01/09 02:12:24;;;;;;;2.30;1.40;;;;;;;;;;5032342;28;20472;-68
2022/01/09 02:14:49;;;;;;;2.08;1.50;;;;;;;;;;5027043;28;20049;-69
2022/01/09 02:17:19;;;;;;;1.80;1.40;;;;;;;;;;5030307;28;20033;-67
2022/01/09 02:19:51;;;;;;;3.25;1.38;;;;;;;;;;5030437;28;20917;-67
2022/01/09 02:22:17;;;;;;;2.58;1.55;;;;;;;;;;5032030;28;20486;-68
2022/01/09 02:24:43;;;;;;;2.22;1.50;;;;;;;;;;5028675;28;20025;-69
2022/01/09 02:27:09;;;;;;;2.17;1.55;;;;;;;;;;5021236;28;20030;-69
2022/01/09 02:29:34;;;;;;;1.75;1.45;;;;;;;;;;5032101;28;20059;-67
2022/01/09 02:32:00;;;;;;;1.75;1.40;;;;;;;;;;5023064;28;20042;-68
2022/01/09 02:34:25;;;;;;;3.08;1.60;;;;;;;;;;5028583;28;20091;-68
2022/01/09 02:36:50;;;;;;;1.88;1.45;;;;;;;;;;5027631;28;20564;-67
2022/01/09 02:39:16;;;;;;;3.45;1.58;;;;;;;;;;5031056;28;20029;-68
2022/01/09 02:41:41;;;;;;;2.38;1.35;;;;;;;;;;5029283;28;20025;-67
2022/01/09 02:44:09;;;;;;;2.70;1.70;;;;;;;;;;5031595;28;20474;-67
2022/01/09 02:49:04;;;;;;;3.10;1.75;;;;;;;;;;5030588;28;20421;-67
2022/01/09 02:51:30;;;;;;;3.47;1.98;;;;;;;;;;5031944;28;20041;-66
2022/01/09 02:54:12;;;;;;;3.72;2.15;;;;;;;;;;5031882;28;20099;-66
2022/01/09 02:56:38;;;;;;;3.45;2.20;;;;;;;;;;5028318;28;20403;-66
2022/01/09 02:59:03;;;;;;;3.88;2.30;;;;;;;;;;5032052;28;20033;-66
2022/01/09 03:01:28;;;;;;;5.55;2.92;;;;;;;;;;5029910;28;20033;-65
2022/01/09 03:03:54;;;;;;;7.32;3.03;;;;;;;;;;5024148;28;20092;-66
2022/01/09 03:06:19;;;;;;;5.57;3.50;;;;;;;;;;5030899;28;20081;-66
2022/01/09 03:08:45;;;;;;;5.88;2.90;;;;;;;;;;5031062;28;20041;-66
2022/01/09 03:11:10;;;;;;;9.13;4.22;;;;;;;;;;5031425;28;20041;-65
2022/01/09 03:13:36;;;;;;;6.15;3.72;;;;;;;;;;5029804;28;20048;-65
2022/01/09 03:16:01;;;;;;;8.57;4.65;;;;;;;;;;5028854;28;20161;-67
2022/01/09 03:18:27;;;;;;;7.15;4.80;;;;;;;;;;5029756;28;20372;-66
2022/01/09 03:20:52;;;;;;;7.03;3.97;;;;;;;;;;5020293;28;20100;-68
2022/01/09 03:23:17;;;;;;;7.53;4.82;;;;;;;;;;5024393;28;20037;-67
2022/01/09 03:25:43;;;;;;;8.90;4.90;;;;;;;;;;5030024;28;20022;-67
2022/01/09 03:28:08;;;;;;;7.63;4.05;;;;;;;;;;5030897;28;20112;-66
2022/01/09 03:30:34;;;;;;;8.35;4.63;;;;;;;;;;5046342;28;20451;-67
2022/01/09 03:32:59;;;;;;;8.65;5.10;;;;;;;;;;5030299;28;20075;-68
2022/01/09 03:35:27;;;;;;;8.75;4.72;;;;;;;;;;5028380;28;20444;-66
2022/01/09 03:37:53;;;;;;;10.45;5.72;;;;;;;;;;5030554;28;20120;-67
2022/01/09 03:40:21;;;;;;;9.60;4.80;;;;;;;;;;5028557;28;20117;-66
2022/01/09 03:42:47;;;;;;;6.82;3.67;;;;;;;;;;5025571;28;20104;-66
2022/01/09 03:45:14;;;;;;;6.38;3.63;;;;;;;;;;5031099;28;20041;-67
2022/01/09 03:47:39;;;;;;;6.32;3.28;;;;;;;;;;5030031;28;20447;-66
2022/01/09 03:50:07;;;;;;;4.03;2.20;;;;;;;;;;5025988;28;20036;-65
2022/01/09 03:52:34;;;;;;;4.60;2.10;;;;;;;;;;5025754;28;20116;-66
2022/01/09 03:54:59;;;;;;;2.67;1.60;;;;;;;;;;5029973;28;20087;-66
2022/01/09 03:57:25;;;;;;;4.65;2.20;;;;;;;;;;5014047;28;20033;-66
2022/01/09 03:59:50;;;;;;;3.13;1.75;;;;;;;;;;5024135;28;20033;-65
2022/01/09 04:02:15;;;;;;;2.00;1.60;;;;;;;;;;5030270;28;20120;-66
2022/01/09 04:04:41;;;;;;;3.03;1.63;;;;;;;;;;5027971;28;20533;-65
2022/01/09 04:07:06;;;;;;;2.75;1.63;;;;;;;;;;5030965;28;20037;-65
2022/01/09 04:09:39;;;;;;;2.90;1.60;;;;;;;;;;5028025;28;20069;-65
2022/01/09 04:12:30;;;;;;;2.25;1.60;;;;;;;;;;5030901;28;20049;-65
2022/01/09 04:14:56;;;;;;;4.15;2.17;;;;;;;;;;5027926;28;20052;-65
2022/01/09 04:17:36;;;;;;;2.22;1.65;;;;;;;;;;5030589;28;20041;-66
2022/01/09 04:20:03;;;;;;;4.93;2.05;;;;;;;;;;5028148;28;20056;-66
2022/01/09 04:22:28;;;;;;;4.70;2.58;;;;;;;;;;5029674;28;20084;-66
2022/01/09 04:24:53;;;;;;;3.58;1.45;;;;;;;;;;5029683;28;20422;-66
2022/01/09 04:27:19;;;;;;;6.07;1.70;;;;;;;;;;5029957;28;20030;-66
2022/01/09 04:29:44;;;;;;;5.50;1.50;;;;;;;;;;5029515;28;20392;-66
2022/01/09 04:32:09;;;;;;;4.82;1.63;;;;;;;;;;5030140;28;20034;-67
2022/01/09 04:34:35;;;;;;;3.40;1.38;;;;;;;;;;5029176;28;20088;-67
2022/01/09 04:37:00;;;;;;;7.00;1.58;;;;;;;;;;5026366;28;20095;-66
2022/01/09 04:39:27;;;;;;;5.90;1.60;;;;;;;;;;5031389;28;20467;-67
2022/01/09 04:41:53;;;;;;;6.65;1.92;;;;;;;;;;5033464;28;20033;-66
2022/01/09 04:44:18;;;;;;;5.93;1.52;;;;;;;;;;5032655;28;20044;-66
2022/01/09 04:46:51;;;;;;;5.15;1.85;;;;;;;;;;5031696;28;20042;-66
2022/01/09 04:49:21;;;;;;;7.45;1.95;;;;;;;;;;5032765;28;20167;-65
2022/01/09 04:51:46;;;;;;;5.45;1.80;;;;;;;;;;5033725;28;20116;-65
2022/01/09 04:54:11;;;;;;;7.72;1.63;;;;;;;;;;5033786;28;20183;-66
2022/01/09 04:56:37;;;;;;;11.30;1.90;;;;;;;;;;5033903;28;20041;-66
2022/01/09 04:59:02;;;;;;;7.20;1.90;;;;;;;;;;5032513;28;21025;-66
2022/01/09 05:01:27;;;;;;;14.10;2.65;;;;;;;;;;5020861;28;20052;-66
2022/01/09 05:03:53;;;;;;;19.55;3.30;;;;;;;;;;5032047;28;20025;-66
2022/01/09 05:06:19;;;;;;;18.23;3.20;;;;;;;;;;5032063;28;20032;-66
2022/01/09 05:08:44;;;;;;;18.27;3.10;;;;;;;;;;5030692;28;20112;-66
2022/01/09 05:11:10;;;;;;;23.02;3.70;;;;;;;;;;5014625;28;20108;-65
2022/01/09 05:13:35;;;;;;;23.00;3.53;;;;;;;;;;5033677;28;20044;-66
2022/01/09 05:16:01;;;;;;;24.98;3.85;;;;;;;;;;5030538;28;20053;-65
2022/01/09 05:18:26;;;;;;;22.13;3.75;;;;;;;;;;5032049;28;20368;-66
2022/01/09 05:20:51;;;;;;;11.90;2.78;;;;;;;;;;5033777;28;20032;-65
2022/01/09 05:23:17;;;;;;;20.10;4.03;;;;;;;;;;5032550;28;20069;-66
2022/01/09 05:25:42;;;;;;;22.27;3.92;;;;;;;;;;5029304;28;20044;-66
2022/01/09 05:28:08;;;;;;;15.98;3.45;;;;;;;;;;5030535;28;20045;-68
2022/01/09 05:30:33;;;;;;;13.90;3.38;;;;;;;;;;5034011;28;20461;-65
2022/01/09 05:32:59;;;;;;;25.52;4.07;;;;;;;;;;5017522;28;20041;-65
2022/01/09 05:35:25;;;;;;;14.88;3.13;;;;;;;;;;5033202;28;20044;-66
2022/01/09 05:37:51;;;;;;;19.77;3.70;;;;;;;;;;5031246;28;20033;-66
2022/01/09 05:40:19;;;;;;;13.70;2.90;;;;;;;;;;5024434;28;20033;-66
2022/01/09 05:42:44;;;;;;;6.68;2.35;;;;;;;;;;5033114;28;20033;-65
2022/01/09 05:45:10;;;;;;;14.30;3.17;;;;;;;;;;5033682;28;20537;-66
2022/01/09 05:47:36;;;;;;;13.15;2.65;;;;;;;;;;5027261;28;20112;-65
2022/01/09 05:50:03;;;;;;;13.88;2.95;;;;;;;;;;5029790;28;20225;-65
2022/01/09 05:52:28;;;;;;;14.85;2.88;;;;;;;;;;5032316;28;20038;-66
2022/01/09 05:54:54;;;;;;;14.82;2.50;;;;;;;;;;5032233;28;20131;-65
2022/01/09 05:57:19;;;;;;;9.07;2.28;;;;;;;;;;5031704;28;20044;-66
2022/01/09 05:59:45;;;;;;;16.27;2.75;;;;;;;;;;5031303;28;20038;-65
2022/01/09 06:02:10;;;;;;;8.32;1.83;;;;;;;;;;5029007;28;20040;-66
2022/01/09 06:04:35;;;;;;;10.07;2.08;;;;;;;;;;5031989;28;20052;-65
2022/01/09 06:07:01;;;;;;;13.02;2.50;;;;;;;;;;5030481;28;20040;-65
2022/01/09 06:09:26;;;;;;;14.93;3.03;;;;;;;;;;5024252;28;20049;-66
2022/01/09 06:11:52;;;;;;;14.25;2.60;;;;;;;;;;5031521;28;20034;-65
2022/01/09 06:14:17;;;;;;;15.35;3.00;;;;;;;;;;5029096;28;20120;-65
2022/01/09 06:16:43;;;;;;;13.65;2.42;;;;;;;;;;5031789;28;20471;-65
2022/01/09 06:19:08;;;;;;;11.32;3.08;;;;;;;;;;5031210;28;20036;-65
2022/01/09 06:21:34;;;;;;;16.05;3.20;;;;;;;;;;5033969;28;20041;-65
2022/01/09 06:23:59;;;;;;;15.63;3.33;;;;;;;;;;5032642;28;20030;-65
2022/01/09 06:26:24;;;;;;;16.35;2.95;;;;;;;;;;5033221;28;20364;-65
2022/01/09 06:28:50;;;;;;;17.73;3.20;;;;;;;;;;5032042;28;20044;-65
2022/01/09 06:31:15;;;;;;;22.20;3.35;;;;;;;;;;5032704;28;20021;-65
2022/01/09 06:33:41;;;;;;;18.45;3.40;;;;;;;;;;5031330;28;20034;-66
2022/01/09 06:36:06;;;;;;;9.38;2.28;;;;;;;;;;5030565;28;20095;-65
2022/01/09 06:38:32;;;;;;;18.73;3.97;;;;;;;;;;5031249;28;20079;-65
2022/01/09 06:40:57;;;;;;;7.88;2.35;;;;;;;;;;5032138;28;20037;-65
2022/01/09 06:43:22;;;;;;;15.57;2.72;;;;;;;;;;5033310;28;20025;-65
2022/01/09 06:45:48;;;;;;;16.40;2.92;;;;;;;;;;5031899;28;20037;-65
2022/01/09 06:48:13;;;;;;;9.15;2.65;;;;;;;;;;5030976;28;20033;-65
2022/01/09 06:50:39;;;;;;;11.80;3.20;;;;;;;;;;5037788;28;20171;-65
2022/01/09 06:53:04;;;;;;;12.93;2.92;;;;;;;;;;5036797;28;20383;-65
2022/01/09 06:55:29;;;;;;;12.75;3.15;;;;;;;;;;5030579;28;20079;-65
2022/01/09 06:57:55;;;;;;;17.90;3.53;;;;;;;;;;5029497;28;20064;-65
2022/01/09 07:00:22;;;;;;;11.25;2.47;;;;;;;;;;5032316;28;20115;-64
2022/01/09 07:02:48;;;;;;;13.80;2.85;;;;;;;;;;5031731;28;20531;-64
2022/01/09 07:05:14;;;;;;;11.50;2.42;;;;;;;;;;5032001;28;20156;-63
2022/01/09 07:07:39;;;;;;;8.40;2.65;;;;;;;;;;5031364;28;20108;-63
2022/01/09 07:10:05;;;;;;;8.93;2.92;;;;;;;;;;5030809;28;20494;-64
2022/01/09 07:12:31;;;;;;;10.40;3.15;;;;;;;;;;5032201;28;20037;-63
2022/01/09 07:14:56;;;;;;;13.20;2.95;;;;;;;;;;5030753;28;20049;-64
2022/01/09 07:17:22;;;;;;;11.63;4.00;;;;;;;;;;5032842;28;20433;-64
2022/01/09 07:19:47;;;;;;;13.95;3.00;;;;;;;;;;5030812;28;20041;-64
2022/01/09 07:22:13;;;;;;;14.00;3.40;;;;;;;;;;5031876;28;20108;-69
2022/01/09 07:24:38;;;;;;;13.55;2.85;;;;;;;;;;5030964;28;20111;-63
2022/01/09 07:27:04;;;;;;;9.25;2.92;;;;;;;;;;5028596;28;20483;-63
2022/01/09 07:29:29;;;;;;;12.13;2.67;;;;;;;;;;5016493;28;20396;-64
2022/01/09 07:31:55;;;;;;;10.77;3.50;;;;;;;;;;5027899;28;20022;-63
2022/01/09 07:34:21;;;;;;;9.25;2.40;;;;;;;;;;5031821;28;20043;-65
2022/01/09 07:36:46;;;;;;;9.57;2.00;;;;;;;;;;5031924;28;20108;-64
2022/01/09 07:39:12;;;;;;;16.52;2.80;;;;;;;;;;5031407;28;20535;-65
2022/01/09 07:41:38;;;;;;;9.68;2.63;;;;;;;;;;5031358;28;20373;-65
2022/01/09 07:44:03;;;;;;;13.50;2.60;;;;;;;;;;5030115;28;20036;-65
2022/01/09 07:46:29;;;;;;;13.07;2.75;;;;;;;;;;5032449;28;20044;-64
2022/01/09 07:48:55;;;;;;;14.38;2.28;;;;;;;;;;5031071;28;20092;-64
2022/01/09 07:51:20;;;;;;;13.48;2.45;;;;;;;;;;5033830;28;20402;-64
2022/01/09 07:53:46;;;;;;;16.90;2.90;;;;;;;;;;5031950;28;20104;-62
2022/01/09 07:56:11;;;;;;;7.07;2.25;;;;;;;;;;5029462;28;20029;-65
2022/01/09 07:58:37;;;;;;;13.23;2.88;;;;;;;;;;5031627;28;20032;-65
2022/01/09 08:01:02;;;;;;;7.85;2.45;;;;;;;;;;5030389;28;20057;-65
2022/01/09 08:03:28;;;;;;;11.05;2.78;;;;;;;;;;5031097;28;20522;-65
2022/01/09 08:05:53;;;;;;;11.85;3.05;;;;;;;;;;5030614;28;20037;-66
2022/01/09 08:08:19;;;;;;;10.18;2.90;;;;;;;;;;5025956;28;20045;-67
2022/01/09 08:10:44;;;;;;;4.85;1.90;;;;;;;;;;5044738;28;20038;-66
2022/01/09 08:13:09;;;;;;;9.82;2.38;;;;;;;;;;5028409;28;20893;-66
2022/01/09 08:15:35;;;;;;;10.25;2.83;;;;;;;;;;5032748;28;20050;-66
2022/01/09 08:18:00;;;;;;;10.70;2.10;;;;;;;;;;5034305;28;20368;-66
2022/01/09 08:20:26;;;;;;;8.48;2.63;;;;;;;;;;5034180;28;20037;-65
2022/01/09 08:22:51;;;;;;;11.80;2.70;;;;;;;;;;5035259;28;20037;-66
2022/01/09 08:25:18;;;;;;;14.05;3.10;;;;;;;;;;5035582;28;20242;-65
2022/01/09 08:27:44;;;;;;;8.02;2.13;;;;;;;;;;5034691;28;20045;-65
2022/01/09 08:30:12;;;;;;;5.15;1.77;;;;;;;;;;5034326;28;20036;-66
2022/01/09 08:32:38;;;;;;;7.40;2.45;;;;;;;;;;5035360;28;20040;-66
2022/01/09 08:35:05;;;;;;;8.25;2.60;;;;;;;;;;5032371;28;20034;-66
2022/01/09 08:37:31;;;;;;;10.00;2.72;;;;;;;;;;5034278;28;20055;-65
2022/01/09 08:39:56;;;;;;;12.32;3.38;;;;;;;;;;5025340;28;20029;-67
2022/01/09 08:42:22;;;;;;;8.70;2.83;;;;;;;;;;5020738;28;20367;-66
2022/01/09 08:44:47;;;;;;;9.27;3.13;;;;;;;;;;5033461;28;20033;-66
2022/01/09 08:47:13;;;;;;;8.57;2.80;;;;;;;;;;5029486;28;20361;-67
2022/01/09 08:49:38;;;;;;;13.57;2.72;;;;;;;;;;5033454;28;20029;-67
2022/01/09 08:52:04;;;;;;;12.63;3.10;;;;;;;;;;5032270;28;20041;-66
2022/01/09 08:54:30;;;;;;;11.68;3.05;;;;;;;;;;5035362;28;20033;-66
2022/01/09 08:56:56;;;;;;;14.90;3.60;;;;;;;;;;5031402;28;20037;-67
2022/01/09 08:59:22;;;;;;;4.50;1.90;;;;;;;;;;5033200;28;20033;-66
2022/01/09 09:01:48;;;;;;;10.60;3.35;;;;;;;;;;5019557;28;20038;-66
2022/01/09 09:04:14;;;;;;;12.50;2.97;;;;;;;;;;5026830;28;20036;-66
2022/01/09 09:06:40;;;;;;;10.80;3.13;;;;;;;;;;5034309;28;20036;-67
2022/01/09 09:09:06;;;;;;;8.13;2.88;;;;;;;;;;5033527;28;20403;-67
2022/01/09 09:11:32;;;;;;;11.73;3.83;;;;;;;;;;5033161;28;20030;-67
2022/01/09 09:13:57;;;;;;;12.55;3.83;;;;;;;;;;5035530;28;20029;-68
2022/01/09 09:16:23;;;;;;;9.98;3.20;;;;;;;;;;5034123;28;20601;-67
2022/01/09 09:18:50;;;;;;;21.25;4.80;;;;;;;;;;5033749;28;20057;-67
2022/01/09 09:21:16;;;;;;;9.07;2.90;;;;;;;;;;5033408;28;20044;-68
2022/01/09 09:23:42;;;;;;;10.27;3.33;;;;;;;;;;5032920;28;20056;-67
2022/01/09 09:26:09;;;;;;;12.52;3.17;;;;;;;;;;5014022;28;20407;-67
2022/01/09 09:28:34;;;;;;;10.30;3.42;;;;;;;;;;5033494;28;20104;-67
2022/01/09 09:31:00;;;;;;;25.85;3.80;;;;;;;;;;5031476;28;20041;-67
2022/01/09 09:33:25;;;;;;;12.10;3.40;;;;;;;;;;5033141;28;20146;-67
2022/01/09 09:35:52;;;;;;;12.77;3.35;;;;;;;;;;5034196;28;20026;-66
2022/01/09 09:38:17;;;;;;;9.82;3.50;;;;;;;;;;5033215;28;20089;-66
2022/01/09 09:40:43;;;;;;;13.07;3.20;;;;;;;;;;5030917;28;20445;-66
2022/01/09 09:43:08;;;;;;;13.27;3.60;;;;;;;;;;5032932;28;20026;-66
2022/01/09 09:45:34;;;;;;;13.48;3.30;;;;;;;;;;5034188;28;20432;-65
2022/01/09 09:47:59;;;;;;;15.07;4.05;;;;;;;;;;5032502;28;20030;-69
2022/01/09 09:50:25;;;;;;;11.75;3.55;;;;;;;;;;5032261;28;20478;-64
2022/01/09 09:52:50;;;;;;;9.52;3.20;;;;;;;;;;5033491;28;20057;-64
2022/01/09 09:55:17;;;;;;;9.70;3.13;;;;;;;;;;5032848;28;20068;-63
2022/01/09 09:57:43;;;;;;;9.82;2.85;;;;;;;;;;5033885;28;20029;-63
2022/01/09 10:00:13;;;;;;;10.38;2.90;;;;;;;;;;5048393;28;20095;-63
2022/01/09 10:02:48;;;;;;;9.88;2.70;;;;;;;;;;5032804;28;20391;-63
2022/01/09 10:05:15;;;;;;;10.85;3.55;;;;;;;;;;5032389;28;20033;-63
2022/01/09 10:07:41;;;;;;;6.18;2.95;;;;;;;;;;5032211;28;20338;-63
2022/01/09 10:10:10;;;;;;;7.47;2.97;;;;;;;;;;5032438;28;20029;-63
2022/01/09 10:12:36;;;;;;;6.97;2.83;;;;;;;;;;5033658;28;20088;-62
2022/01/09 10:15:06;;;;;;;6.43;2.90;;;;;;;;;;5032520;28;20049;-63
2022/01/09 10:17:32;;;;;;;9.57;3.30;;;;;;;;;;5033359;28;20040;-62
2022/01/09 10:20:16;;;;;;;10.18;3.03;;;;;;;;;;5032361;28;20183;-66
2022/01/09 10:22:44;;;;;;;11.13;3.50;;;;;;;;;;5033397;28;20117;-61
2022/01/09 10:25:31;;;;;;;8.13;2.40;;;;;;;;;;5032533;28;20029;-63
2022/01/09 10:28:05;;;;;;;8.63;3.42;;;;;;;;;;5033270;28;20087;-62
2022/01/09 10:30:43;;;;;;;8.82;3.75;;;;;;;;;;5048953;28;20087;-63
2022/01/09 10:33:12;;;;;;;8.90;3.33;;;;;;;;;;5032251;28;20037;-63
2022/01/09 10:35:39;;;;;;;13.73;3.50;;;;;;;;;;5031536;28;20033;-64
2022/01/09 10:38:11;;;;;;;10.82;3.22;;;;;;;;;;5011350;28;20100;-63
2022/01/09 10:40:38;;;;;;;8.25;2.80;;;;;;;;;;5013426;28;20026;-62
2022/01/09 10:43:13;;;;;;;7.78;2.90;;;;;;;;;;5012180;28;20546;-63
2022/01/09 10:45:45;;;;;;;10.07;3.00;;;;;;;;;;5013236;28;20038;-64
2022/01/09 10:48:12;;;;;;;10.77;3.05;;;;;;;;;;5012442;28;20495;-63
2022/01/09 10:50:40;;;;;;;12.55;3.53;;;;;;;;;;5029986;28;20041;-63
2022/01/09 10:53:17;;;;;;;13.80;4.00;;;;;;;;;;5030840;28;20095;-63
2022/01/09 10:55:47;;;;;;;10.02;3.08;;;;;;;;;;5032682;28;20040;-63
2022/01/09 10:58:21;;;;;;;10.07;4.00;;;;;;;;;;5032227;28;20525;-63
2022/01/09 11:00:47;;;;;;;13.77;3.78;;;;;;;;;;5032988;28;20541;-63
2022/01/09 11:03:13;;;;;;;14.10;3.75;;;;;;;;;;5032126;28;20041;-63
2022/01/09 11:05:39;;;;;;;13.45;3.63;;;;;;;;;;5031052;28;20091;-61
2022/01/09 11:08:04;;;;;;;15.95;4.72;;;;;;;;;;5031399;28;20124;-66
2022/01/09 11:10:31;;;;;;;9.93;3.55;;;;;;;;;;5032503;28;20115;-63
2022/01/09 11:12:59;;;;;;;13.25;3.72;;;;;;;;;;5032441;28;20037;-63
2022/01/09 11:15:29;;;;;;;8.30;3.35;;;;;;;;;;5031695;28;20139;-62
2022/01/09 11:17:58;;;;;;;10.50;4.00;;;;;;;;;;5031995;28;20044;-62
2022/01/09 11:20:24;;;;;;;9.18;3.67;;;;;;;;;;5029798;28;20116;-63
2022/01/09 11:22:51;;;;;;;12.00;3.53;;;;;;;;;;5032069;28;20021;-63
2022/01/09 11:25:30;;;;;;;9.43;3.05;;;;;;;;;;5031565;28;20029;-63
2022/01/09 11:28:05;;;;;;;7.18;3.03;;;;;;;;;;5031932;28;20037;-62
2022/01/09 11:30:58;;;;;;;16.00;3.42;;;;;;;;;;5032298;28;20087;-63
2022/01/09 11:33:27;;;;;;;13.18;3.28;;;;;;;;;;5046376;28;20464;-63
2022/01/09 11:36:04;;;;;;;5.38;2.00;;;;;;;;;;5031984;28;20030;-63
2022/01/09 11:38:48;;;;;;;10.05;2.80;;;;;;;;;;5031395;28;20034;-63
2022/01/09 11:41:19;;;;;;;12.45;3.90;;;;;;;;;;5031269;28;20049;-63
2022/01/09 11:44:02;;;;;;;8.80;3.20;;;;;;;;;;5030926;28;20055;-63
2022/01/09 11:46:30;;;;;;;10.52;2.83;;;;;;;;;;5011948;28;20038;-63
2022/01/09 11:48:55;;;;;;;15.40;3.25;;;;;;;;;;5011796;28;20034;-63
2022/01/09 11:51:28;;;;;;;10.88;3.95;;;;;;;;;;5011598;28;20038;-63
2022/01/09 11:54:16;;;;;;;7.32;2.80;;;;;;;;;;5012288;28;20079;-63
2022/01/09 11:56:41;;;;;;;13.93;3.60;;;;;;;;;;5011104;28;20091;-63
2022/01/09 11:59:34;;;;;;;6.32;2.40;;;;;;;;;;5016764;28;20053;-65
2022/01/09 12:02:27;;;;;;;7.47;2.92;;;;;;;;;;5031527;28;20447;-63
2022/01/09 12:04:54;;;;;;;13.75;3.53;;;;;;;;;;5031553;28;20034;-62
2022/01/09 12:07:32;;;;;;;11.48;3.67;;;;;;;;;;5046105;28;20471;-63
2022/01/09 12:09:58;;;;;;;6.13;3.47;;;;;;;;;;5046948;28;20471;-63
2022/01/09 12:12:32;;;;;;;8.77;3.22;;;;;;;;;;5030838;28;20029;-63
2022/01/09 12:15:04;;;;;;;13.27;4.50;;;;;;;;;;5031460;28;20096;-63
2022/01/09 12:17:33;;;;;;;10.88;3.83;;;;;;;;;;5030832;28;20038;-63
2022/01/09 12:20:13;;;;;;;10.43;4.45;;;;;;;;;;5031315;28;20037;-63
2022/01/09 12:22:53;;;;;;;11.20;4.35;;;;;;;;;;5031729;28;20088;-63
2022/01/09 12:25:22;;;;;;;9.23;3.72;;;;;;;;;;5031242;28;20033;-63
2022/01/09 12:27:51;;;;;;;13.77;4.35;;;;;;;;;;5047223;28;20047;-62
2022/01/09 12:33:05;;;;;;;9.23;3.10;;;;;;;;;;5031668;28;20041;-63
2022/01/09 12:35:32;;;;;;;12.57;4.38;;;;;;;;;;5030780;28;20033;-63
2022/01/09 12:38:01;;;;;;;11.70;4.22;;;;;;;;;;5031629;28;20091;-63
2022/01/09 12:40:30;;;;;;;6.72;3.05;;;;;;;;;;5030370;28;20037;-63
2022/01/09 12:42:58;;;;;;;9.23;3.38;;;;;;;;;;5029688;28;20030;-63
2022/01/09 12:45:35;;;;;;;12.80;3.80;;;;;;;;;;5030410;28;20090;-63
2022/01/09 12:48:02;;;;;;;7.57;3.30;;;;;;;;;;5031259;28;20033;-63
2022/01/09 12:50:33;;;;;;;6.75;2.90;;;;;;;;;;5030587;28;20025;-63
2022/01/09 12:53:17;;;;;;;;;;;;;;;;;;5032029;28;20026;-63
2022/01/09 12:56:09;;;;;;;7.45;2.17;;;;;;;;;;5031402;28;19909;-63
2022/01/09 12:58:40;;;;;;;5.80;2.38;;;;;;;;;;5030184;28;20029;-63
2022/01/09 13:01:16;;;;;;;;;;;;;;;;;;5033895;28;20033;-63
2022/01/09 13:03:44;;;;;;;9.95;3.08;;;;;;;;;;5034798;28;19909;-63
2022/01/09 13:06:13;;;;;;;6.32;2.55;;;;;;;;;;5034098;28;20025;-65
2022/01/09 13:08:45;;;;;;;7.25;2.85;;;;;;;;;;5034878;28;20067;-63
2022/01/09 13:11:14;;;;;;;5.45;1.95;;;;;;;;;;5034350;28;20087;-66
2022/01/09 13:13:40;;;;;;;9.50;3.25;;;;;;;;;;5034104;28;20038;-64
2022/01/09 13:16:15;;;;;;;14.57;5.35;;;;;;;;;;5034305;28;20487;-64
2022/01/09 13:18:48;;;;;;;9.88;3.33;;;;;;;;;;5034681;28;20033;-63
2022/01/09 13:21:20;;;;;;;10.65;3.70;;;;;;;;;;5032609;28;20533;-64
2022/01/09 13:23:55;;;;;;;10.60;4.15;;;;;;;;;;5033140;28;20022;-62
2022/01/09 13:26:22;;;;;;;16.02;3.95;;;;;;;;;;5033276;28;20030;-63
2022/01/09 13:28:49;;;;;;;10.27;3.40;;;;;;;;;;5033653;28;20415;-63
2022/01/09 13:31:16;;;;;;;13.20;4.22;;;;;;;;;;5033664;28;20102;-64
2022/01/09 13:34:04;;;;;;;7.43;3.83;;;;;;;;;;5034731;28;20034;-63
2022/01/09 13:36:32;;;;;;;7.53;2.80;;;;;;;;;;5033486;28;20029;-64
2022/01/09 13:38:59;;;;;;;9.30;3.30;;;;;;;;;;5033917;28;20498;-63
2022/01/09 13:41:28;;;;;;;11.90;3.53;;;;;;;;;;5033673;28;20034;-64
2022/01/09 13:43:54;;;;;;;6.55;2.45;;;;;;;;;;5032588;28;20036;-63
2022/01/09 13:46:19;;;;;;;9.63;2.42;;;;;;;;;;5032633;28;20026;-63
2022/01/09 13:48:50;;;;;;;11.25;3.20;;;;;;;;;;5032892;28;20041;-63
2022/01/09 13:51:38;;;;;;;11.50;3.42;;;;;;;;;;5033035;28;20029;-64
2022/01/09 13:54:04;;;;;;;11.55;3.95;;;;;;;;;;5034120;28;20494;-63
2022/01/09 13:56:30;;;;;;;6.78;2.67;;;;;;;;;;5032833;28;20107;-63
2022/01/09 13:58:56;;;;;;;11.25;4.97;;;;;;;;;;5031987;28;20403;-64
2022/01/09 14:01:58;;;;;;;17.92;5.15;;;;;;;;;;5025839;28;20438;-65
2022/01/09 14:04:24;;;;;;;8.82;2.97;;;;;;;;;;5018033;28;20034;-63
2022/01/09 14:06:57;;;;;;;10.73;3.97;;;;;;;;;;5016980;28;20120;-63
2022/01/09 14:09:32;;;;;;;12.73;3.38;;;;;;;;;;5031934;28;20052;-63
2022/01/09 14:12:12;;;;;;;7.75;3.35;;;;;;;;;;5033492;28;20033;-64
2022/01/09 14:14:43;;;;;;;6.82;3.78;;;;;;;;;;5032986;28;20045;-63
2022/01/09 14:17:25;;;;;;;7.63;3.97;;;;;;;;;;5030845;28;20040;-64
2022/01/09 14:19:51;;;;;;;8.70;4.18;;;;;;;;;;5031436;28;20037;-65
2022/01/09 14:22:17;;;;;;;13.43;3.97;;;;;;;;;;5032192;28;20037;-65
2022/01/09 14:24:57;;;;;;;11.30;4.95;;;;;;;;;;5033205;28;20124;-64
2022/01/09 14:27:29;;;;;;;9.25;3.40;;;;;;;;;;5041692;28;20030;-63
2022/01/09 14:29:54;;;;;;;12.73;4.50;;;;;;;;;;5032804;28;20348;-64
2022/01/09 14:32:20;;;;;;;9.35;4.10;;;;;;;;;;5030046;28;20418;-64
2022/01/09 14:34:46;;;;;;;10.63;4.70;;;;;;;;;;5032766;28;20025;-65
2022/01/09 14:37:13;;;;;;;13.00;4.03;;;;;;;;;;5032485;28;20032;-64
2022/01/09 14:39:38;;;;;;;9.27;3.30;;;;;;;;;;5032303;28;20113;-65
2022/01/09 14:42:06;;;;;;;10.82;4.00;;;;;;;;;;5030856;28;20125;-64
2022/01/09 14:44:35;;;;;;;12.90;3.80;;;;;;;;;;5031977;28;20029;-64
2022/01/09 14:47:02;;;;;;;12.70;3.80;;;;;;;;;;5031751;28;20088;-65